Terminal Aerodrome Forecast
Issued by NWS Blacksburg, VA

Current Version | Previous Version | Graphics & Text | Print | Product List | Glossary On
Versions: 1 2 3 4 5 6 7 8 9 10 11 12 13 14 15 16 17 18 19
000
FTUS41 KRNK 272131 AAA
TAFBLF
TAF AMD
KBLF 272131Z 2722/2818 20007KT P6SM VCTS SCT025 BKN050CB
      TEMPO 2722/2723 5SM -TSRA
     FM272300 20007KT P6SM VCSH SCT020 BKN040
     FM280600 14005KT P6SM OVC010
     FM280900 00000KT 5SM BR BKN008
     FM281000 VRB04KT 1SM BR BKN010
     FM281400 12007KT P6SM SCT030 BKN100=

USA.gov is the U.S. government's official web portal to all federal, state and local government web resources and services.